createdAt,value
2018-09-21T00:01:03.670Z,101279.70
2018-09-21T00:03:32.046Z,101277.50
2018-09-21T00:06:00.434Z,101280.12
2018-09-21T00:08:29.727Z,101279.38
2018-09-21T00:10:58.090Z,101278.98
2018-09-21T00:13:26.473Z,101268.38
2018-09-21T00:15:54.842Z,101264.67
2018-09-21T00:18:23.210Z,101259.81
2018-09-21T00:20:51.569Z,101258.43
2018-09-21T00:23:19.929Z,101258.89
2018-09-21T00:25:48.314Z,101254.13
2018-09-21T00:28:16.681Z,101251.05
2018-09-21T00:30:45.104Z,101252.59
2018-09-21T00:33:13.465Z,101248.30
2018-09-21T00:35:41.833Z,101248.20
2018-09-21T00:38:10.188Z,101240.98
2018-09-21T00:40:38.564Z,101237.94
2018-09-21T00:43:06.973Z,101229.15
2018-09-21T00:45:35.339Z,101222.34
2018-09-21T00:48:03.704Z,101225.19
2018-09-21T00:50:32.071Z,101219.86
2018-09-21T00:53:00.454Z,101213.67
2018-09-21T00:55:28.817Z,101217.57
2018-09-21T00:57:57.194Z,101218.09
2018-09-21T01:00:25.563Z,101213.45
2018-09-21T01:02:53.925Z,101210.39
2018-09-21T01:05:22.296Z,101210.23
2018-09-21T01:07:50.657Z,101208.45
2018-09-21T01:10:19.027Z,101205.02
2018-09-21T01:12:47.385Z,101201.62
2018-09-21T01:15:15.761Z,101200.51
2018-09-21T01:17:44.140Z,101197.01
2018-09-21T01:20:12.515Z,101191.29
2018-09-21T01:22:40.876Z,101195.69
2018-09-21T01:25:09.243Z,101189.49
2018-09-21T01:27:37.613Z,101189.72
2018-09-21T01:30:05.976Z,101185.84
2018-09-21T01:32:34.342Z,101178.66
2018-09-21T01:35:02.715Z,101176.16
2018-09-21T01:37:31.093Z,101170.66
2018-09-21T01:39:59.464Z,101167.48
2018-09-21T01:42:31.567Z,101162.70
2018-09-21T01:45:00.244Z,101159.68
2018-09-21T01:47:28.832Z,101154.86
2018-09-21T01:49:56.964Z,101153.92
2018-09-21T01:52:25.331Z,101153.52
2018-09-21T01:54:53.705Z,101148.13
2018-09-21T01:57:22.083Z,101147.58
2018-09-21T01:59:50.446Z,101144.86
2018-09-21T02:02:18.808Z,101142.05
2018-09-21T02:04:47.181Z,101144.50
2018-09-21T02:07:15.545Z,101142.08
2018-09-21T02:09:43.955Z,101142.33
2018-09-21T02:12:12.284Z,101143.59
2018-09-21T02:14:40.643Z,101141.51
2018-09-21T02:17:09.025Z,101142.67
2018-09-21T02:19:37.383Z,101138.55
2018-09-21T02:22:05.765Z,101133.85
2018-09-21T02:24:34.131Z,101133.13
2018-09-21T02:27:02.503Z,101132.79
2018-09-21T02:29:30.874Z,101132.23
2018-09-21T02:31:59.249Z,101122.88
2018-09-21T02:34:27.605Z,101118.98
2018-09-21T02:36:55.972Z,101114.51
2018-09-21T02:39:24.334Z,101108.75
2018-09-21T02:41:52.708Z,101110.85
2018-09-21T02:44:21.081Z,101103.87
2018-09-21T02:46:49.588Z,101100.22
2018-09-21T02:49:17.964Z,101096.28
2018-09-21T02:51:46.322Z,101099.48
2018-09-21T02:54:14.694Z,101096.68
2018-09-21T02:56:43.093Z,101093.23
2018-09-21T02:59:11.460Z,101087.63
2018-09-21T03:01:39.816Z,101088.48
2018-09-21T03:04:08.196Z,101086.29
2018-09-21T03:06:36.576Z,101080.92
2018-09-21T03:09:04.945Z,101079.20
2018-09-21T03:11:33.326Z,101077.20
2018-09-21T03:14:01.797Z,101078.39
2018-09-21T03:16:30.170Z,101073.23
2018-09-21T03:18:58.550Z,101068.31
2018-09-21T03:21:26.939Z,101064.57
2018-09-21T03:23:55.315Z,101065.30
2018-09-21T03:26:23.679Z,101059.03
2018-09-21T03:28:52.062Z,101053.55
2018-09-21T03:31:20.429Z,101045.27
2018-09-21T03:33:49.015Z,101041.55
2018-09-21T03:36:17.164Z,101042.30
2018-09-21T03:38:45.533Z,101035.64
2018-09-21T03:41:13.910Z,101039.31
2018-09-21T03:43:42.291Z,101033.52
2018-09-21T03:46:10.655Z,101029.81
2018-09-21T03:48:39.041Z,101029.62
2018-09-21T03:51:07.409Z,101028.12
2018-09-21T03:53:35.789Z,101027.25
2018-09-21T03:56:04.167Z,101019.99
2018-09-21T03:58:32.559Z,101023.09
2018-09-21T04:01:00.925Z,101020.63
2018-09-21T04:03:29.285Z,101018.22
2018-09-21T04:05:57.651Z,101015.00
2018-09-21T04:08:26.030Z,101010.78
2018-09-21T04:10:54.408Z,101007.43
2018-09-21T04:13:23.055Z,101003.37
2018-09-21T04:15:51.421Z,100998.99
2018-09-21T04:18:19.797Z,100997.17
2018-09-21T04:20:48.169Z,100990.79
2018-09-21T04:23:16.538Z,100982.73
2018-09-21T04:25:44.894Z,100981.75
2018-09-21T04:28:13.267Z,100976.98
2018-09-21T04:30:41.632Z,100977.12
2018-09-21T04:33:10.294Z,100974.21
2018-09-21T04:35:38.673Z,100978.81
2018-09-21T04:38:07.059Z,100970.03
2018-09-21T04:40:35.452Z,100968.08
2018-09-21T04:43:03.828Z,100966.14
2018-09-21T04:45:32.210Z,100966.28
2018-09-21T04:48:00.588Z,100967.86
2018-09-21T04:50:28.957Z,100972.08
2018-09-21T04:52:57.335Z,100969.13
2018-09-21T04:55:25.736Z,100968.36
2018-09-21T04:57:54.104Z,100966.58
2018-09-21T05:00:23.466Z,100958.73
2018-09-21T05:02:51.834Z,100965.89
2018-09-21T05:05:20.216Z,100965.38
2018-09-21T05:08:06.408Z,100966.08
2018-09-21T05:10:34.725Z,100961.21
2018-09-21T05:13:03.139Z,100961.15
2018-09-21T05:15:31.517Z,100960.73
2018-09-21T05:17:59.899Z,100958.95
2018-09-21T05:20:28.258Z,100955.34
2018-09-21T05:22:56.592Z,100954.00
2018-09-21T05:25:24.939Z,100947.62
2018-09-21T05:27:53.189Z,100949.84
2018-09-21T05:30:21.610Z,100948.06
2018-09-21T05:32:49.941Z,100943.05
2018-09-21T05:35:18.410Z,100946.45
2018-09-21T05:37:46.771Z,100943.99
2018-09-21T05:40:15.164Z,100949.28
2018-09-21T05:42:42.942Z,100941.77
2018-09-21T05:45:11.293Z,100944.80
2018-09-21T05:47:39.837Z,100950.79
2018-09-21T05:50:08.669Z,100943.94
2018-09-21T05:52:37.062Z,100946.64
2018-09-21T05:55:05.382Z,100937.23
2018-09-21T05:57:33.138Z,100944.67
2018-09-21T06:00:02.044Z,100933.90
2018-09-21T06:02:30.415Z,100939.98
2018-09-21T06:04:58.707Z,100940.25
2018-09-21T06:07:27.036Z,100934.28
2018-09-21T06:09:55.377Z,100934.11
2018-09-21T06:12:23.783Z,100935.30
2018-09-21T06:14:51.466Z,100933.97
2018-09-21T06:17:20.395Z,100935.03
2018-09-21T06:19:48.751Z,100926.11
2018-09-21T06:22:17.283Z,100925.73
2018-09-21T06:24:45.037Z,100920.83
2018-09-21T06:27:13.998Z,100925.63
2018-09-21T06:29:42.365Z,100917.12
2018-09-21T06:32:10.129Z,100915.59
2018-09-21T06:34:39.054Z,100915.98
2018-09-21T06:37:21.020Z,100914.70
2018-09-21T06:39:49.354Z,100913.27
2018-09-21T06:42:17.692Z,100906.87
2018-09-21T06:44:46.026Z,100904.86
2018-09-21T06:47:14.394Z,100902.27
2018-09-21T06:49:42.752Z,100901.14
2018-09-21T06:52:11.920Z,100898.44
2018-09-21T06:54:39.427Z,100893.97
2018-09-21T06:57:07.816Z,100896.30
2018-09-21T06:59:36.151Z,100895.92
2018-09-21T07:02:04.566Z,100892.62
2018-09-21T07:04:32.690Z,100897.11
2018-09-21T07:07:01.148Z,100890.13
2018-09-21T07:09:29.496Z,100892.39
2018-09-21T07:11:57.239Z,100893.48
2018-09-21T07:14:25.593Z,100890.69
2018-09-21T07:16:54.569Z,100897.64
2018-09-21T07:19:22.294Z,100891.20
2018-09-21T07:21:51.830Z,100900.55
2018-09-21T07:24:19.912Z,100893.34
2018-09-21T07:26:48.250Z,100896.67
2018-09-21T07:29:16.018Z,100896.58
2018-09-21T07:31:44.372Z,100894.41
2018-09-21T07:34:12.714Z,100892.42
2018-09-21T07:36:41.635Z,100901.11
2018-09-21T07:39:09.955Z,100898.88
2018-09-21T07:41:37.703Z,100893.56
2018-09-21T07:44:06.606Z,100892.34
2018-09-21T07:46:34.929Z,100892.57
2018-09-21T07:49:03.386Z,100891.44
2018-09-21T07:51:31.097Z,100891.22
2018-09-21T07:54:00.027Z,100886.84
2018-09-21T07:56:29.033Z,100885.28
2018-09-21T07:58:56.727Z,100875.60
2018-09-21T08:01:25.053Z,100877.73
2018-09-21T08:03:53.649Z,100871.91
2018-09-21T08:06:21.760Z,100867.00
2018-09-21T08:08:50.111Z,100863.69
2018-09-21T08:11:17.845Z,100870.20
2018-09-21T08:13:46.762Z,100867.30
2018-09-21T08:16:15.092Z,100861.57
2018-09-21T08:18:43.419Z,100857.73
2018-09-21T08:21:11.748Z,100852.11
2018-09-21T08:23:40.092Z,100845.14
2018-09-21T08:26:07.850Z,100850.53
2018-09-21T08:28:36.759Z,100845.75
2018-09-21T08:31:07.198Z,100840.25
2018-09-21T08:33:35.400Z,100836.09
2018-09-21T08:36:03.760Z,100838.58
2018-09-21T08:38:32.170Z,100829.45
2018-09-21T08:41:00.840Z,100826.69
2018-09-21T08:43:28.963Z,100821.00
2018-09-21T08:45:57.324Z,100821.52
2018-09-21T08:48:25.678Z,100820.83
2018-09-21T08:50:54.073Z,100812.69
2018-09-21T08:53:22.502Z,100822.15
2018-09-21T08:55:50.930Z,100811.87
2018-09-21T08:58:19.571Z,100813.31
2018-09-21T09:00:48.368Z,100803.89
2018-09-21T09:03:16.204Z,100805.98
2018-09-21T09:05:43.968Z,100800.39
2018-09-21T09:08:12.785Z,100795.33
2018-09-21T09:10:41.135Z,100797.49
2018-09-21T09:13:08.881Z,100794.42
2018-09-21T09:15:38.336Z,100790.87
2018-09-21T09:18:06.451Z,100785.27
2018-09-21T09:20:34.813Z,100776.66
2018-09-21T09:23:03.253Z,100770.34
2018-09-21T09:25:36.409Z,100759.55
2018-09-21T09:28:04.908Z,100759.17
2018-09-21T09:30:33.496Z,100756.77
2018-09-21T09:33:01.904Z,100750.38
2018-09-21T09:35:30.418Z,100743.68
2018-09-21T09:37:59.045Z,100737.25
2018-09-21T09:40:27.193Z,100739.06
2018-09-21T09:42:57.589Z,100738.22
2018-09-21T09:45:28.037Z,100750.23
2018-09-21T09:47:55.023Z,100726.31
2018-09-21T09:50:23.424Z,100721.52
2018-09-21T09:52:51.849Z,100715.38
2018-09-21T09:55:20.232Z,100709.37
2018-09-21T09:57:49.888Z,100706.71
2018-09-21T10:00:18.556Z,100706.00
2018-09-21T10:02:46.731Z,100706.55
2018-09-21T10:05:15.085Z,100691.09
2018-09-21T10:07:42.854Z,100711.52
2018-09-21T10:10:11.827Z,100699.69
2018-09-21T10:12:40.152Z,100689.94
2018-09-21T10:15:09.666Z,100685.19
2018-09-21T10:17:37.172Z,100681.81
2018-09-21T10:20:05.783Z,100674.94
2018-09-21T10:22:33.872Z,100684.84
2018-09-21T10:25:02.310Z,100671.98
2018-09-21T10:27:30.836Z,100670.77
2018-09-21T10:29:58.962Z,100680.12
2018-09-21T10:32:27.294Z,100662.22
2018-09-21T10:34:55.632Z,100664.03
2018-09-21T10:37:23.388Z,100665.53
2018-09-21T10:39:52.411Z,100659.27
2018-09-21T10:42:20.685Z,100653.36
2018-09-21T10:44:48.397Z,100647.97
2018-09-21T10:47:16.720Z,100656.42
2018-09-21T10:49:45.662Z,100643.45
2018-09-21T10:52:13.405Z,100640.13
2018-09-21T10:54:42.368Z,100636.28
2018-09-21T10:57:10.093Z,100630.91
2018-09-21T10:59:39.013Z,100615.91
2018-09-21T11:02:07.422Z,100620.27
2018-09-21T11:04:35.165Z,100619.42
2018-09-21T11:07:11.577Z,100608.09
2018-09-21T11:09:38.238Z,100605.71
2018-09-21T11:12:06.598Z,100596.30
2018-09-21T11:14:34.948Z,100573.34
2018-09-21T11:17:03.275Z,100587.52
2018-09-21T11:19:31.627Z,100580.48
2018-09-21T11:21:59.972Z,100575.14
2018-09-21T11:24:28.324Z,100574.57
2018-09-21T11:26:56.102Z,100580.21
2018-09-21T11:29:25.022Z,100558.03
2018-09-21T11:31:53.352Z,100562.50
2018-09-21T11:34:21.117Z,100555.55
2018-09-21T11:36:50.039Z,100547.84
2018-09-21T11:39:17.792Z,100543.84
2018-09-21T11:41:46.693Z,100540.42
2018-09-21T11:44:15.026Z,100530.99
2018-09-21T11:46:43.467Z,100523.36
2018-09-21T11:49:11.782Z,100523.61
2018-09-21T11:51:40.141Z,100519.03
2018-09-21T11:54:08.440Z,100507.11
2018-09-21T11:56:36.774Z,100502.68
2018-09-21T11:59:05.523Z,100505.41
2018-09-21T12:01:33.873Z,100488.40
2018-09-21T12:04:02.293Z,100501.73
2018-09-21T12:06:31.693Z,100482.59
2018-09-21T12:09:00.027Z,100483.61
2018-09-21T12:11:27.788Z,100480.98
2018-09-21T12:13:57.187Z,100461.19
2018-09-21T12:16:25.747Z,100460.98
2018-09-21T12:18:53.849Z,100472.77
2018-09-21T12:21:22.525Z,100454.97
2018-09-21T12:23:51.440Z,100455.80
2018-09-21T12:26:19.779Z,100454.55
2018-09-21T12:28:48.114Z,100451.02
2018-09-21T12:31:16.461Z,100437.17
2018-09-21T12:33:44.790Z,100436.67
2018-09-21T12:36:13.365Z,100437.75
2018-09-21T12:38:41.558Z,100437.16
2018-09-21T12:41:09.778Z,100427.25
2018-09-21T12:43:38.116Z,100422.41
2018-09-21T12:46:06.452Z,100424.73
2018-09-21T12:48:34.782Z,100420.61
2018-09-21T12:51:03.718Z,100407.30
2018-09-21T12:53:31.447Z,100405.92
2018-09-21T12:55:59.214Z,100405.23
2018-09-21T12:58:28.280Z,100403.39
2018-09-21T13:00:56.593Z,100387.30
2018-09-21T13:03:24.944Z,100382.30
2018-09-21T13:05:53.148Z,100375.47
2018-09-21T13:08:22.094Z,100364.48
2018-09-21T13:10:50.419Z,100361.34
2018-09-21T13:13:18.744Z,100346.72
2018-09-21T13:15:47.085Z,100341.56
2018-09-21T13:18:14.845Z,100330.19
2018-09-21T13:20:43.802Z,100309.33
2018-09-21T13:23:12.148Z,100315.78
2018-09-21T13:25:40.599Z,100323.28
2018-09-21T13:28:08.881Z,100330.28
2018-09-21T13:30:37.233Z,100310.74
2018-09-21T13:33:04.981Z,100313.36
2018-09-21T13:35:33.930Z,100313.94
2018-09-21T13:38:02.249Z,100318.39
2018-09-21T13:40:30.590Z,100312.41
2018-09-21T13:42:58.910Z,100312.70
2018-09-21T13:45:27.243Z,100304.71
2018-09-21T13:47:54.998Z,100297.27
2018-09-21T13:50:23.887Z,100307.10
2018-09-21T13:52:52.246Z,100291.48
2018-09-21T13:55:46.235Z,100287.86
2018-09-21T13:58:14.604Z,100277.09
2018-09-21T14:00:42.357Z,100284.31
2018-09-21T14:03:11.496Z,100274.69
2018-09-21T14:05:39.685Z,100266.34
2018-09-21T14:08:08.063Z,100269.42
2018-09-21T14:10:36.398Z,100271.83
2018-09-21T14:13:04.730Z,100259.54
2018-09-21T14:15:33.050Z,100251.80
2018-09-21T14:18:01.394Z,100258.15
2018-09-21T14:20:30.307Z,100271.10
2018-09-21T14:22:57.468Z,100248.88
2018-09-21T14:25:25.807Z,100239.23
2018-09-21T14:27:54.715Z,100244.62
2018-09-21T14:30:23.975Z,100229.72
2018-09-21T14:32:52.328Z,100232.12
2018-09-21T14:35:20.081Z,100241.81
2018-09-21T14:37:48.421Z,100228.45
2018-09-21T14:40:16.757Z,100237.13
2018-09-21T14:42:45.085Z,100229.56
2018-09-21T14:45:13.995Z,100219.86
2018-09-21T14:47:41.758Z,100210.76
2018-09-21T14:50:11.130Z,100223.05
2018-09-21T14:52:39.250Z,100205.19
2018-09-21T14:55:07.578Z,100193.20
2018-09-21T14:57:35.958Z,100179.55
2018-09-21T15:00:04.405Z,100170.81
2018-09-21T15:02:32.750Z,100168.69
2018-09-21T15:05:01.112Z,100158.63
2018-09-21T15:07:29.476Z,100166.02
2018-09-21T15:09:57.887Z,100161.03
2018-09-21T15:12:26.368Z,100147.80
2018-09-21T15:14:54.705Z,100141.36
2018-09-21T15:20:12.828Z,100129.02
2018-09-21T15:22:41.276Z,100140.38
2018-09-21T15:25:09.544Z,100124.50
2018-09-21T15:27:38.216Z,100118.75
2018-09-21T15:30:06.556Z,100104.83
2018-09-21T15:32:34.896Z,100101.59
2018-09-21T15:35:03.229Z,100090.72
2018-09-21T15:37:30.983Z,100088.56
2018-09-21T15:39:59.893Z,100079.84
2018-09-21T15:42:28.232Z,100079.34
2018-09-21T15:44:56.575Z,100071.46
2018-09-21T15:47:24.909Z,100069.88
2018-09-21T15:49:53.534Z,100063.95
2018-09-21T15:52:21.846Z,100074.65
2018-09-21T15:54:50.164Z,100067.21
2018-09-21T15:57:19.773Z,100060.97
2018-09-21T15:59:48.127Z,100053.34
2018-09-21T16:02:15.881Z,100051.30
2018-09-21T16:04:44.210Z,100057.24
2018-09-21T16:07:13.162Z,100039.19
2018-09-21T16:09:40.887Z,100029.17
2018-09-21T16:12:09.845Z,100026.34
2018-09-21T16:14:37.581Z,100020.48
2018-09-21T16:17:06.485Z,100012.05
2018-09-21T16:19:34.820Z,100009.00
2018-09-21T16:22:04.026Z,100008.73
2018-09-21T16:24:32.345Z,100005.63
2018-09-21T16:27:00.668Z,99999.64
2018-09-21T16:29:28.415Z,99988.84
2018-09-21T16:31:57.322Z,99990.50
2018-09-21T16:34:25.916Z,99985.20
2018-09-21T16:36:54.230Z,99982.31
2018-09-21T16:39:22.565Z,99975.20
2018-09-21T16:41:50.888Z,99972.22
2018-09-21T16:44:18.625Z,99968.13
2018-09-21T16:46:47.526Z,99964.84
2018-09-21T16:49:15.842Z,99972.72
2018-09-21T16:51:43.635Z,99966.00
2018-09-21T16:54:12.489Z,99969.13
2018-09-21T16:56:40.806Z,99962.09
2018-09-21T16:59:09.125Z,99965.23
2018-09-21T17:01:36.898Z,99961.72
2018-09-21T17:04:05.230Z,99955.05
2018-09-21T17:06:33.666Z,99962.47
2018-09-21T17:09:02.026Z,99966.92
2018-09-21T17:11:31.122Z,99962.09
2018-09-21T17:13:59.410Z,99952.66
2018-09-21T17:16:27.743Z,99954.05
2018-09-21T17:18:56.259Z,99953.97
2018-09-21T17:21:24.634Z,99952.42
2018-09-21T17:23:53.016Z,99961.02
2018-09-21T17:26:21.479Z,99961.02
2018-09-21T17:28:49.924Z,99954.22
2018-09-21T17:31:18.324Z,99962.06
2018-09-21T17:36:45.760Z,99976.22
2018-09-21T17:39:15.977Z,99966.98
2018-09-21T17:41:47.316Z,99973.27
2018-09-21T17:46:54.592Z,99973.77
2018-09-21T17:49:29.514Z,99962.67
2018-09-21T17:51:57.887Z,99967.81
2018-09-21T17:54:27.341Z,99964.73
2018-09-21T17:56:56.239Z,99964.92
2018-09-21T17:59:24.572Z,99968.61
2018-09-21T18:01:52.977Z,99989.08
2018-09-21T18:04:21.406Z,100075.56
2018-09-21T18:06:49.771Z,100164.42
2018-09-21T18:09:18.210Z,100221.13
2018-09-21T18:11:47.331Z,100224.08
2018-09-21T18:14:17.380Z,100244.98
2018-09-21T18:16:44.907Z,100221.13
2018-09-21T18:19:13.259Z,100249.39
2018-09-21T18:21:41.615Z,100257.16
2018-09-21T18:24:09.973Z,100282.64
2018-09-21T18:26:38.315Z,100323.88
2018-09-21T18:29:06.668Z,100274.51
2018-09-21T18:31:35.164Z,100267.78
2018-09-21T18:34:03.699Z,100277.45
2018-09-21T18:36:31.852Z,100280.67
2018-09-21T18:39:00.914Z,100280.33
2018-09-21T18:41:29.069Z,100277.55
2018-09-21T18:43:57.614Z,100279.42
2018-09-21T18:46:25.948Z,100288.89
2018-09-21T18:48:54.273Z,100295.98
2018-09-21T18:51:22.625Z,100305.31
2018-09-21T18:53:50.983Z,100325.80
2018-09-21T18:56:19.316Z,100319.53
2018-09-21T18:58:47.654Z,100357.44
2018-09-21T19:01:16.015Z,100367.88
2018-09-21T19:03:44.362Z,100373.55
2018-09-21T19:06:12.807Z,100396.53
2018-09-21T19:08:41.443Z,100373.26
2018-09-21T19:11:09.892Z,100365.52
2018-09-21T19:13:38.239Z,100359.29
2018-09-21T19:16:06.044Z,100344.68
2018-09-21T19:18:34.989Z,100370.48
2018-09-21T19:21:03.353Z,100390.91
2018-09-21T19:23:31.760Z,100354.48
2018-09-21T19:26:00.168Z,100355.08
2018-09-21T19:28:28.539Z,100358.31
2018-09-21T19:30:56.293Z,100355.17
2018-09-21T19:33:25.215Z,100354.59
2018-09-21T19:35:53.588Z,100345.71
2018-09-21T19:38:22.459Z,100357.70
2018-09-21T19:40:51.703Z,100351.44
2018-09-21T19:43:19.498Z,100357.12
2018-09-21T19:45:48.442Z,100371.45
2018-09-21T19:48:16.849Z,100360.47
2018-09-21T19:50:45.214Z,100386.19
2018-09-21T19:53:13.597Z,100381.35
2018-09-21T19:55:42.049Z,100364.89
2018-09-21T19:58:10.392Z,100359.42
2018-09-21T20:00:38.845Z,100377.52
2018-09-21T20:03:07.183Z,100367.91
2018-09-21T20:05:35.542Z,100398.17
2018-09-21T20:08:03.896Z,100418.73
2018-09-21T20:10:32.323Z,100456.09
2018-09-21T20:13:01.137Z,100453.26
2018-09-21T20:15:29.989Z,100452.38
2018-09-21T20:17:58.221Z,100431.70
2018-09-21T20:20:27.651Z,100431.84
2018-09-21T20:22:55.775Z,100432.08
2018-09-21T20:25:24.167Z,100436.99
2018-09-21T20:27:52.503Z,100436.17
2018-09-21T20:30:20.898Z,100431.38
2018-09-21T20:32:55.057Z,100449.16
2018-09-21T20:35:23.462Z,100447.69
2018-09-21T20:37:51.783Z,100435.30
2018-09-21T20:40:20.156Z,100443.87
2018-09-21T20:42:49.384Z,100460.06
2018-09-21T20:45:17.726Z,100466.14
2018-09-21T20:47:46.074Z,100489.45
2018-09-21T20:50:14.822Z,100490.69
2018-09-21T20:52:43.820Z,100483.70
2018-09-21T20:55:12.159Z,100491.66
2018-09-21T20:57:40.537Z,100478.41
2018-09-21T21:00:09.017Z,100483.44
2018-09-21T21:02:37.300Z,100481.19
2018-09-21T21:05:05.738Z,100472.29
2018-09-21T21:07:34.091Z,100469.00
2018-09-21T21:10:02.634Z,100488.94
2018-09-21T21:12:30.955Z,100479.83
2018-09-21T21:14:59.406Z,100487.47
2018-09-21T21:17:27.887Z,100494.34
2018-09-21T21:19:56.278Z,100493.29
2018-09-21T21:22:24.661Z,100505.73
2018-09-21T21:24:53.081Z,100501.83
2018-09-21T21:27:21.375Z,100501.05
2018-09-21T21:29:49.760Z,100478.41
2018-09-21T21:32:18.100Z,100483.27
2018-09-21T21:34:46.442Z,100485.77
2018-09-21T21:37:14.776Z,100484.58
2018-09-21T21:39:43.568Z,100466.67
2018-09-21T21:42:11.962Z,100468.50
2018-09-21T21:44:39.706Z,100447.55
2018-09-21T21:47:08.638Z,100424.90
2018-09-21T21:49:36.972Z,100412.05
2018-09-21T21:52:05.368Z,100395.20
2018-09-21T21:54:33.139Z,100368.80
2018-09-21T21:57:02.058Z,100362.23
2018-09-21T21:59:30.396Z,100359.71
2018-09-21T22:01:58.145Z,100373.55
2018-09-21T22:04:26.489Z,100365.63
2018-09-21T22:06:54.832Z,100381.62
2018-09-21T22:09:23.740Z,100420.58
2018-09-21T22:11:52.069Z,100439.41
2018-09-21T22:14:19.814Z,100458.88
2018-09-21T22:16:48.153Z,100449.19
2018-09-21T22:19:17.063Z,100475.01
2018-09-21T22:21:45.439Z,100512.77
2018-09-21T22:24:14.679Z,100526.83
2018-09-21T22:26:42.709Z,100555.46
2018-09-21T22:29:10.444Z,100572.25
2018-09-21T22:31:38.786Z,100589.11
2018-09-21T22:34:07.148Z,100583.73
2018-09-21T22:36:35.488Z,100594.05
2018-09-21T22:39:04.373Z,100584.67
2018-09-21T22:41:32.690Z,100581.16
2018-09-21T22:44:00.469Z,100581.70
2018-09-21T22:46:29.387Z,100593.98
2018-09-21T22:48:57.936Z,100607.91
2018-09-21T22:51:25.464Z,100611.52
2018-09-21T22:53:53.789Z,100601.70
2018-09-21T22:56:22.696Z,100607.31
2018-09-21T22:58:51.024Z,100616.09
2018-09-21T23:01:18.776Z,100634.19
2018-09-21T23:03:47.678Z,100633.81
2018-09-21T23:06:16.662Z,100625.66
2018-09-21T23:08:44.987Z,100607.92
2018-09-21T23:11:13.352Z,100601.28
2018-09-21T23:13:41.088Z,100598.19
2018-09-21T23:16:09.409Z,100625.52
2018-09-21T23:18:38.318Z,100617.78
2018-09-21T23:21:06.079Z,100582.82
2018-09-21T23:23:35.019Z,100587.70
2018-09-21T23:26:03.344Z,100602.95
2018-09-21T23:28:31.095Z,100605.59
2018-09-21T23:30:59.995Z,100598.11
2018-09-21T23:33:28.344Z,100623.51
2018-09-21T23:35:56.081Z,100605.94
2018-09-21T23:38:24.996Z,100612.59
2018-09-21T23:40:53.365Z,100649.64
2018-09-21T23:43:21.681Z,100625.01
2018-09-21T23:45:49.998Z,100625.84
2018-09-21T23:48:18.322Z,100634.78
2018-09-21T23:50:46.056Z,100639.23
2018-09-21T23:53:14.378Z,100641.72
2018-09-21T23:55:43.289Z,100628.95
2018-09-21T23:58:11.613Z,100631.73
